Time;durP1;ratioP1;P1;durP2;ratioP2;P2;SDS_P1;SDS_P2;PMS_P1;PMS_P2;Temp;Humidity;BMP_temperature;BMP_pressure;BME280_temperature;BME280_humidity;BME280_pressure;Samples;Min_cycle;Max_cycle;Signal;HPM_P1;HPM_P2
2023/10/21 00:02:32;;;;;;;0.20;0.20;;;;;11.80;91588.00;;;;7395342;19;20651;-75
2023/10/21 00:05:02;;;;;;;0.70;0.30;;;;;11.70;91594.00;;;;7398133;19;20607;-75
2023/10/21 00:07:43;;;;;;;0.30;0.30;;;;;11.80;91602.00;;;;7395894;19;20647;-76
2023/10/21 00:10:11;;;;;;;1.10;0.40;;;;;11.80;91595.00;;;;7396972;19;20473;-77
2023/10/21 00:13:05;;;;;;;0.30;0.30;;;;;11.80;91617.00;;;;7399526;19;20169;-76
2023/10/21 00:15:34;;;;;;;0.10;0.10;;;;;11.80;91613.00;;;;7397894;19;20501;-74
2023/10/21 00:18:12;;;;;;;0.60;0.35;;;;;11.90;91606.00;;;;7397044;19;20630;-75
2023/10/21 00:20:46;;;;;;;0.38;0.28;;;;;11.80;91602.00;;;;7397348;19;20483;-75
2023/10/21 00:23:22;;;;;;;0.35;0.30;;;;;11.90;91600.00;;;;7396814;19;20588;-76
2023/10/21 00:25:59;;;;;;;0.25;0.20;;;;;11.90;91616.00;;;;7398859;19;20159;-76
2023/10/21 00:28:34;;;;;;;0.32;0.25;;;;;11.90;91607.00;;;;7398024;19;20135;-75
2023/10/21 00:31:04;;;;;;;4.75;0.63;;;;;11.90;91614.00;;;;7397361;19;20129;-74
2023/10/21 00:33:38;;;;;;;1.45;0.40;;;;;11.90;91622.00;;;;7398448;19;20148;-75
2023/10/21 00:36:13;;;;;;;0.30;0.17;;;;;11.90;91635.00;;;;7396916;19;20649;-80
2023/10/21 00:38:48;;;;;;;0.30;0.30;;;;;12.00;91624.00;;;;7397804;19;20140;-74
2023/10/21 00:41:16;;;;;;;0.32;0.28;;;;;12.10;91614.00;;;;7396958;19;20154;-78
2023/10/21 00:43:50;;;;;;;0.52;0.20;;;;;12.00;91622.00;;;;7395271;19;20621;-77
2023/10/21 00:46:26;;;;;;;4.80;1.17;;;;;12.00;91624.00;;;;7397956;19;20161;-80
2023/10/21 00:49:04;;;;;;;0.88;0.20;;;;;12.00;91645.00;;;;7397428;19;20469;-80
2023/10/21 00:51:39;;;;;;;3.33;0.25;;;;;12.00;91669.00;;;;7398284;19;20603;-80
2023/10/21 00:54:16;;;;;;;0.15;0.10;;;;;12.20;91652.00;;;;7395894;19;21245;-78
2023/10/21 00:56:45;;;;;;;3.13;0.15;;;;;12.20;91674.00;;;;7396095;19;20144;-78
2023/10/21 00:59:22;;;;;;;0.57;0.22;;;;;12.30;91671.00;;;;7396699;19;20640;-79
2023/10/21 01:01:50;;;;;;;0.30;0.13;;;;;12.30;91684.00;;;;7396305;19;20652;-77
2023/10/21 01:04:26;;;;;;;0.00;0.00;;;;;12.40;91687.00;;;;7393603;19;20136;-76
2023/10/21 01:06:55;;;;;;;0.35;0.20;;;;;12.40;91695.00;;;;7396853;19;20144;-80
2023/10/21 01:09:36;;;;;;;1.02;0.30;;;;;12.40;91710.00;;;;7395685;19;20164;-77
2023/10/21 01:12:07;;;;;;;0.95;0.30;;;;;12.50;91712.00;;;;7396803;19;20156;-81
2023/10/21 01:14:45;;;;;;;2.40;0.20;;;;;12.40;91719.00;;;;7395624;19;20147;-80
2023/10/21 01:17:21;;;;;;;1.30;0.32;;;;;12.30;91725.00;;;;7397371;19;20571;-81
2023/10/21 01:20:06;;;;;;;0.90;0.40;;;;;12.40;91735.00;;;;7395763;19;20160;-76
2023/10/21 01:22:40;;;;;;;0.32;0.22;;;;;12.40;91734.00;;;;7394392;19;20220;-79
2023/10/21 01:25:11;;;;;;;0.25;0.20;;;;;12.30;91754.00;;;;7397610;19;20593;-80
2023/10/21 01:27:40;;;;;;;0.22;0.22;;;;;12.50;91754.00;;;;7397721;19;20588;-82
2023/10/21 01:30:14;;;;;;;1.10;0.35;;;;;12.50;91754.00;;;;7395290;19;20471;-76
2023/10/21 01:32:43;;;;;;;0.17;0.17;;;;;12.60;91765.00;;;;7396997;19;20129;-83
2023/10/21 01:35:18;;;;;;;0.30;0.20;;;;;12.50;91764.00;;;;7397779;19;20129;-81
2023/10/21 01:37:46;;;;;;;0.52;0.20;;;;;12.60;91760.00;;;;7394766;19;20145;-80
2023/10/21 01:40:20;;;;;;;0.73;0.25;;;;;12.60;91775.00;;;;7394938;19;20155;-81
2023/10/21 01:43:03;;;;;;;0.80;0.22;;;;;12.70;91785.00;;;;7395948;19;20157;-82
2023/10/21 01:45:38;;;;;;;0.22;0.22;;;;;12.60;91784.00;;;;7395428;19;20140;-79
2023/10/21 01:48:12;;;;;;;3.83;0.20;;;;;12.80;91790.00;;;;7396477;19;20149;-80
2023/10/21 01:50:41;;;;;;;0.22;0.22;;;;;12.70;91789.00;;;;7395066;19;20144;-78
2023/10/21 01:53:16;;;;;;;0.73;0.25;;;;;12.70;91802.00;;;;7396966;19;20133;-80
2023/10/21 01:55:44;;;;;;;1.85;0.17;;;;;12.70;91811.00;;;;7393247;19;20149;-79
2023/10/21 01:58:20;;;;;;;0.20;0.15;;;;;12.80;91814.00;;;;7394441;19;20216;-80
2023/10/21 02:00:51;;;;;;;1.40;0.30;;;;;12.80;91829.00;;;;7393246;19;20611;-77
2023/10/21 02:03:26;;;;;;;0.20;0.20;;;;;12.80;91826.00;;;;7393302;19;20133;-79
2023/10/21 02:06:08;;;;;;;0.32;0.30;;;;;12.80;91831.00;;;;7392997;19;20162;-79
2023/10/21 02:08:51;;;;;;;0.30;0.30;;;;;13.00;91841.00;;;;7394830;19;20133;-77
2023/10/21 02:11:26;;;;;;;0.32;0.20;;;;;12.90;91846.00;;;;7395681;19;20295;-81
2023/10/21 02:13:56;;;;;;;2.20;0.40;;;;;12.90;91854.00;;;;7393995;19;20156;-80
2023/10/21 02:16:31;;;;;;;1.77;0.20;;;;;13.00;91864.00;;;;7392516;19;20145;-77
2023/10/21 02:18:59;;;;;;;0.52;0.20;;;;;12.90;91864.00;;;;7393757;19;20713;-79
2023/10/21 02:21:33;;;;;;;0.05;0.05;;;;;12.70;91872.00;;;;7394828;19;20186;-79
2023/10/21 02:24:08;;;;;;;0.90;0.10;;;;;12.80;91879.00;;;;7391622;19;20133;-79
2023/10/21 02:26:43;;;;;;;0.88;0.40;;;;;12.60;91891.00;;;;7394947;19;20136;-81
2023/10/21 02:29:20;;;;;;;0.52;0.30;;;;;12.80;91896.00;;;;7394985;19;20125;-79
2023/10/21 02:31:55;;;;;;;0.20;0.20;;;;;12.70;91901.00;;;;7394040;19;20152;-77
2023/10/21 02:34:23;;;;;;;0.10;0.10;;;;;12.70;91900.00;;;;7394830;19;20150;-79
2023/10/21 02:36:51;;;;;;;2.30;0.28;;;;;12.70;91913.00;;;;7394430;19;20597;-80
2023/10/21 02:39:25;;;;;;;0.50;0.30;;;;;12.70;91912.00;;;;7392586;19;20148;-79
2023/10/21 02:41:54;;;;;;;1.40;0.40;;;;;12.50;91915.00;;;;7394318;19;21094;-77
2023/10/21 02:44:22;;;;;;;0.13;0.13;;;;;12.60;91920.00;;;;7392950;19;20161;-77
2023/10/21 02:46:56;;;;;;;0.38;0.17;;;;;12.50;91933.00;;;;7395196;19;20588;-81
2023/10/21 02:49:24;;;;;;;0.10;0.10;;;;;12.60;91932.00;;;;7393439;19;20157;-78
2023/10/21 02:51:58;;;;;;;0.38;0.20;;;;;12.50;91925.00;;;;7394052;19;20213;-76
2023/10/21 02:54:33;;;;;;;1.35;0.32;;;;;12.60;91935.00;;;;7395932;19;20636;-77
2023/10/21 02:57:07;;;;;;;0.15;0.15;;;;;12.50;91925.00;;;;7400559;19;20625;-78
2023/10/21 02:59:41;;;;;;;0.38;0.20;;;;;12.50;91934.00;;;;7398897;19;20203;-81
2023/10/21 03:02:13;;;;;;;0.25;0.25;;;;;12.40;91945.00;;;;7397976;19;20189;-80
2023/10/21 03:04:48;;;;;;;0.47;0.30;;;;;12.30;91935.00;;;;7396462;19;20180;-78
2023/10/21 03:07:29;;;;;;;0.55;0.20;;;;;12.20;91946.00;;;;7399559;19;20228;-78
2023/10/21 03:10:11;;;;;;;0.25;0.20;;;;;12.20;91955.00;;;;7398580;19;20148;-76
2023/10/21 03:13:05;;;;;;;0.50;0.30;;;;;12.20;91952.00;;;;7398639;19;20140;-77
2023/10/21 03:15:41;;;;;;;0.93;0.50;;;;;12.10;91949.00;;;;7399766;19;20145;-75
2023/10/21 03:18:10;;;;;;;0.70;0.38;;;;;12.10;91955.00;;;;7399299;19;20620;-78
2023/10/21 03:20:53;;;;;;;0.40;0.30;;;;;12.10;91959.00;;;;7400496;19;20139;-79
2023/10/21 03:23:21;;;;;;;0.55;0.32;;;;;12.20;91958.00;;;;7395205;19;20491;-77
2023/10/21 03:25:56;;;;;;;0.20;0.17;;;;;12.10;91966.00;;;;7398235;19;20168;-78
2023/10/21 03:28:26;;;;;;;3.00;0.20;;;;;12.20;91972.00;;;;7397574;19;20156;-79
2023/10/21 03:31:04;;;;;;;0.45;0.15;;;;;12.10;91974.00;;;;7399564;19;20137;-79
2023/10/21 03:33:35;;;;;;;1.67;0.20;;;;;12.10;91967.00;;;;7399553;19;20132;-76
2023/10/21 03:36:11;;;;;;;0.15;0.15;;;;;12.10;91975.00;;;;7398471;19;20164;-77
2023/10/21 03:38:40;;;;;;;0.30;0.10;;;;;12.10;91971.00;;;;7398025;19;20260;-79
2023/10/21 03:41:12;;;;;;;0.10;0.10;;;;;12.20;91988.00;;;;7400168;19;20144;-76
2023/10/21 03:43:46;;;;;;;0.08;0.08;;;;;12.00;91979.00;;;;7399021;19;20157;-77
2023/10/21 03:46:21;;;;;;;0.77;0.30;;;;;12.00;91994.00;;;;7397518;19;20539;-77
2023/10/21 03:48:56;;;;;;;0.13;0.10;;;;;11.90;91999.00;;;;7397543;19;20148;-77
2023/10/21 03:51:25;;;;;;;1.50;0.28;;;;;12.00;92010.00;;;;7398609;19;20234;-76
2023/10/21 03:53:53;;;;;;;0.30;0.30;;;;;12.00;92018.00;;;;7397207;19;20156;-78
2023/10/21 03:56:28;;;;;;;0.10;0.10;;;;;12.10;92020.00;;;;7396913;19;20141;-78
2023/10/21 03:58:56;;;;;;;0.10;0.10;;;;;12.00;92022.00;;;;7397920;19;20160;-73
2023/10/21 04:01:31;;;;;;;1.00;0.35;;;;;12.10;92035.00;;;;7395652;19;20139;-75
2023/10/21 04:03:59;;;;;;;3.30;0.40;;;;;12.10;92040.00;;;;7393018;19;20145;-77
2023/10/21 04:06:40;;;;;;;0.30;0.22;;;;;12.20;92037.00;;;;7392688;19;20159;-74
2023/10/21 04:09:15;;;;;;;2.63;0.40;;;;;12.10;92056.00;;;;7397688;19;20210;-74
2023/10/21 04:11:51;;;;;;;0.20;0.20;;;;;12.10;92062.00;;;;7397963;19;20148;-75
2023/10/21 04:14:19;;;;;;;0.10;0.10;;;;;12.20;92072.00;;;;7395497;19;20144;-74
2023/10/21 04:16:54;;;;;;;0.22;0.22;;;;;12.10;92069.00;;;;7397599;19;20132;-74
2023/10/21 04:19:23;;;;;;;0.88;0.45;;;;;12.20;92080.00;;;;7396374;19;20173;-75
2023/10/21 04:21:59;;;;;;;0.30;0.30;;;;;12.30;92083.00;;;;7397981;19;20172;-76
2023/10/21 04:24:27;;;;;;;3.25;0.30;;;;;12.10;92088.00;;;;7395999;19;20133;-75
2023/10/21 04:27:03;;;;;;;0.30;0.30;;;;;12.00;92079.00;;;;7396723;19;20592;-75
2023/10/21 04:29:39;;;;;;;0.43;0.30;;;;;11.80;92089.00;;;;7397524;19;20172;-75
2023/10/21 04:32:08;;;;;;;0.65;0.28;;;;;11.60;92096.00;;;;7398442;19;20612;-75
2023/10/21 04:34:44;;;;;;;1.08;0.40;;;;;11.40;92110.00;;;;7397542;19;20147;-73
2023/10/21 04:37:13;;;;;;;0.70;0.50;;;;;11.40;92098.00;;;;7397021;19;20632;-74
2023/10/21 04:39:51;;;;;;;0.60;0.30;;;;;11.50;92118.00;;;;7398108;19;20129;-76
2023/10/21 04:42:26;;;;;;;1.65;0.63;;;;;11.50;92116.00;;;;7396005;19;20156;-77
2023/10/21 04:44:54;;;;;;;0.80;0.70;;;;;11.70;92114.00;;;;7394881;19;20153;-75
2023/10/21 04:47:40;;;;;;;2.50;0.70;;;;;11.90;92127.00;;;;7396417;19;20140;-76
2023/10/21 04:50:08;;;;;;;0.57;0.22;;;;;11.90;92122.00;;;;7397984;19;20140;-74
2023/10/21 04:52:43;;;;;;;1.55;0.20;;;;;11.90;92120.00;;;;7395201;19;20133;-75
2023/10/21 04:55:13;;;;;;;1.42;0.50;;;;;11.90;92121.00;;;;7392791;19;20634;-75
2023/10/21 04:57:47;;;;;;;0.45;0.40;;;;;11.80;92127.00;;;;7393880;19;20184;-76
2023/10/21 05:00:17;;;;;;;2.30;0.40;;;;;12.00;92127.00;;;;7394741;19;20630;-75
2023/10/21 05:02:51;;;;;;;3.22;0.40;;;;;12.00;92139.00;;;;7394244;19;20140;-76
2023/10/21 05:05:19;;;;;;;1.08;0.20;;;;;12.00;92135.00;;;;7394229;19;20133;-75
2023/10/21 05:08:01;;;;;;;1.58;0.60;;;;;12.00;92151.00;;;;7393877;19;20931;-75
2023/10/21 05:10:44;;;;;;;1.85;0.47;;;;;11.80;92158.00;;;;7393793;19;20145;-76
2023/10/21 05:13:19;;;;;;;0.88;0.30;;;;;11.80;92161.00;;;;7396962;19;20208;-76
2023/10/21 05:15:47;;;;;;;1.40;0.20;;;;;11.60;92167.00;;;;7394877;19;20178;-76
2023/10/21 05:18:21;;;;;;;0.43;0.30;;;;;11.70;92160.00;;;;7393763;19;20141;-75
2023/10/21 05:20:50;;;;;;;1.13;0.40;;;;;11.70;92168.00;;;;7393588;19;20596;-75
2023/10/21 05:23:26;;;;;;;0.77;0.20;;;;;11.50;92170.00;;;;7395576;19;20132;-75
2023/10/21 05:26:02;;;;;;;0.60;0.38;;;;;11.60;92169.00;;;;7393000;19;20173;-76
2023/10/21 05:28:31;;;;;;;1.95;0.25;;;;;11.60;92177.00;;;;7396167;19;20143;-76
2023/10/21 05:31:10;;;;;;;0.30;0.30;;;;;11.60;92178.00;;;;7394036;19;20141;-74
2023/10/21 05:33:45;;;;;;;0.43;0.20;;;;;11.70;92190.00;;;;7395423;19;20584;-75
2023/10/21 05:36:19;;;;;;;0.80;0.40;;;;;11.80;92195.00;;;;7393423;19;20651;-77
2023/10/21 05:38:48;;;;;;;0.52;0.40;;;;;11.90;92199.00;;;;7394574;19;20639;-74
2023/10/21 05:41:24;;;;;;;0.75;0.35;;;;;11.90;92201.00;;;;7395444;19;20135;-74
2023/10/21 05:43:52;;;;;;;0.50;0.50;;;;;12.00;92203.00;;;;7393414;19;20164;-76
2023/10/21 05:46:20;;;;;;;1.65;0.40;;;;;12.00;92213.00;;;;7393758;19;20225;-76
2023/10/21 05:48:55;;;;;;;0.30;0.30;;;;;12.00;92211.00;;;;7393753;19;20152;-74
2023/10/21 05:51:23;;;;;;;0.40;0.38;;;;;11.90;92219.00;;;;7395488;19;20608;-77
2023/10/21 05:53:52;;;;;;;0.38;0.30;;;;;12.10;92227.00;;;;7394672;19;20136;-75
2023/10/21 05:56:27;;;;;;;0.63;0.40;;;;;12.10;92238.00;;;;7391664;19;20152;-74
2023/10/21 05:58:56;;;;;;;0.20;0.20;;;;;12.10;92245.00;;;;7393365;19;20621;-75
2023/10/21 06:01:31;;;;;;;0.35;0.32;;;;;12.10;92246.00;;;;7392405;19;20136;-75
2023/10/21 06:04:07;;;;;;;2.78;0.40;;;;;12.20;92262.00;;;;7392271;19;20144;-76
2023/10/21 06:06:41;;;;;;;0.28;0.20;;;;;12.10;92261.00;;;;7394008;19;20132;-74
2023/10/21 06:09:23;;;;;;;0.22;0.22;;;;;11.90;92265.00;;;;7395848;19;20210;-74
2023/10/21 06:11:59;;;;;;;1.85;0.35;;;;;12.00;92274.00;;;;7393884;19;20160;-74
2023/10/21 06:14:34;;;;;;;0.10;0.10;;;;;12.10;92275.00;;;;7391406;19;20612;-74
2023/10/21 06:17:08;;;;;;;2.20;0.20;;;;;11.90;92284.00;;;;7392846;19;20160;-74
2023/10/21 06:19:44;;;;;;;0.13;0.10;;;;;12.20;92284.00;;;;7394977;19;20623;-74
2023/10/21 06:22:13;;;;;;;0.10;0.10;;;;;12.20;92289.00;;;;7391631;19;20157;-75
2023/10/21 06:24:42;;;;;;;0.77;0.30;;;;;12.30;92287.00;;;;7392517;19;20216;-76
2023/10/21 06:27:16;;;;;;;0.70;0.35;;;;;12.30;92291.00;;;;7392778;19;20616;-75
2023/10/21 06:29:50;;;;;;;0.95;0.20;;;;;12.30;92312.00;;;;7396937;19;20176;-73
2023/10/21 06:32:32;;;;;;;0.80;0.20;;;;;12.30;92312.00;;;;7402169;19;20604;-74
2023/10/21 06:35:07;;;;;;;1.52;0.30;;;;;12.30;92320.00;;;;7401353;19;20185;-73
2023/10/21 06:37:36;;;;;;;1.00;0.32;;;;;12.30;92317.00;;;;7398819;19;20148;-74
2023/10/21 06:40:05;;;;;;;0.68;0.28;;;;;12.30;92330.00;;;;7402285;19;20158;-74
2023/10/21 06:42:56;;;;;;;0.90;0.32;;;;;12.40;92322.00;;;;7401529;19;20129;-74
2023/10/21 06:45:26;;;;;;;0.10;0.10;;;;;12.40;92322.00;;;;7398827;19;20600;-73
2023/10/21 06:48:06;;;;;;;0.20;0.20;;;;;12.40;92336.00;;;;7401341;19;20517;-74
2023/10/21 06:50:42;;;;;;;0.63;0.22;;;;;12.30;92333.00;;;;7400223;19;20610;-74
2023/10/21 06:53:16;;;;;;;0.73;0.30;;;;;12.40;92337.00;;;;7401413;19;20636;-74
2023/10/21 06:55:45;;;;;;;0.68;0.20;;;;;12.40;92341.00;;;;7400390;19;20200;-74
2023/10/21 06:58:20;;;;;;;0.43;0.22;;;;;12.50;92341.00;;;;7401474;19;20140;-75
2023/10/21 07:00:49;;;;;;;0.22;0.20;;;;;12.40;92350.00;;;;7399558;19;20164;-73
2023/10/21 07:03:23;;;;;;;0.25;0.20;;;;;12.30;92358.00;;;;7400808;19;20504;-75
2023/10/21 07:05:58;;;;;;;0.52;0.30;;;;;12.50;92359.00;;;;7398079;19;20144;-74
2023/10/21 07:08:36;;;;;;;1.75;0.40;;;;;12.70;92363.00;;;;7398451;19;20177;-72
2023/10/21 07:11:18;;;;;;;0.32;0.28;;;;;13.00;92377.00;;;;7399444;19;20146;-74
2023/10/21 07:13:56;;;;;;;0.80;0.60;;;;;13.00;92374.00;;;;7397581;19;20147;-76
2023/10/21 07:16:30;;;;;;;0.57;0.40;;;;;13.10;92387.00;;;;7399327;19;20144;-76
2023/10/21 07:19:05;;;;;;;0.88;0.32;;;;;13.30;92387.00;;;;7398792;19;20501;-74
2023/10/21 07:21:41;;;;;;;1.77;0.30;;;;;13.60;92393.00;;;;7398863;19;20157;-74
2023/10/21 07:24:12;;;;;;;2.00;0.20;;;;;13.60;92389.00;;;;7400672;19;20160;-73
2023/10/21 07:26:47;;;;;;;2.30;0.63;;;;;13.70;92383.00;;;;7397136;19;20153;-74
2023/10/21 07:29:22;;;;;;;1.60;0.30;;;;;13.50;92388.00;;;;7398934;19;20152;-75
2023/10/21 07:31:57;;;;;;;1.20;0.30;;;;;13.30;92399.00;;;;7398312;19;20140;-74
2023/10/21 07:34:25;;;;;;;1.70;0.57;;;;;13.30;92398.00;;;;7398296;19;20144;-74
2023/10/21 07:37:00;;;;;;;1.10;0.57;;;;;13.60;92402.00;;;;7399078;19;20152;-75
2023/10/21 07:39:29;;;;;;;1.17;0.40;;;;;14.10;92415.00;;;;7398036;19;20623;-75
2023/10/21 07:42:04;;;;;;;2.50;0.35;;;;;14.00;92417.00;;;;7396727;19;20238;-75
2023/10/21 07:44:38;;;;;;;0.50;0.25;;;;;13.80;92414.00;;;;7398730;19;20144;-74
2023/10/21 07:47:13;;;;;;;0.43;0.30;;;;;14.30;92418.00;;;;7397517;19;20162;-79
2023/10/21 07:49:41;;;;;;;0.70;0.30;;;;;14.70;92417.00;;;;7395475;19;20169;-75
2023/10/21 07:52:16;;;;;;;0.35;0.25;;;;;15.10;92425.00;;;;7397551;19;20809;-75
2023/10/21 07:54:47;;;;;;;0.90;0.30;;;;;15.20;92420.00;;;;7397260;19;20140;-73
2023/10/21 07:57:15;;;;;;;0.40;0.40;;;;;15.50;92440.00;;;;7396069;19;20648;-76
2023/10/21 07:59:52;;;;;;;0.30;0.17;;;;;15.10;92449.00;;;;7399031;19;20166;-74
2023/10/21 08:02:28;;;;;;;0.65;0.43;;;;;15.00;92457.00;;;;7396588;19;20478;-75
2023/10/21 08:04:57;;;;;;;0.40;0.30;;;;;14.90;92458.00;;;;7396270;19;20153;-76
2023/10/21 08:07:39;;;;;;;0.80;0.20;;;;;14.80;92459.00;;;;7394238;19;20192;-77
2023/10/21 08:10:20;;;;;;;0.57;0.38;;;;;14.50;92463.00;;;;7396558;19;20160;-75
2023/10/21 08:12:49;;;;;;;0.52;0.20;;;;;14.30;92469.00;;;;7395836;19;20624;-74
2023/10/21 08:15:24;;;;;;;0.20;0.20;;;;;14.20;92485.00;;;;7391502;19;20559;-75
2023/10/21 08:17:58;;;;;;;0.55;0.17;;;;;14.30;92478.00;;;;7395821;19;20619;-76
2023/10/21 08:20:27;;;;;;;1.50;0.55;;;;;14.40;92486.00;;;;7396517;19;20156;-76
2023/10/21 08:23:01;;;;;;;0.75;0.20;;;;;14.20;92481.00;;;;7396924;19;20586;-73
2023/10/21 08:25:29;;;;;;;0.38;0.30;;;;;14.60;92489.00;;;;7396270;19;20173;-76
2023/10/21 08:28:03;;;;;;;2.22;0.85;;;;;15.10;92474.00;;;;7396047;19;20612;-73
2023/10/21 08:30:32;;;;;;;1.73;0.40;;;;;15.70;92496.00;;;;7396286;19;20147;-75
2023/10/21 08:33:06;;;;;;;0.52;0.40;;;;;16.50;92484.00;;;;7396346;19;20173;-75
2023/10/21 08:35:35;;;;;;;2.08;0.50;;;;;16.90;92464.00;;;;7395338;19;20144;-75
2023/10/21 08:38:09;;;;;;;0.20;0.20;;;;;17.00;92484.00;;;;7397337;19;20805;-73
2023/10/21 08:40:46;;;;;;;0.30;0.30;;;;;16.60;92466.00;;;;7397721;19;20491;-74
2023/10/21 08:43:25;;;;;;;1.90;0.28;;;;;16.30;92491.00;;;;7395843;19;20476;-73
2023/10/21 08:46:00;;;;;;;1.27;0.35;;;;;15.50;92501.00;;;;7394273;19;20164;-75
2023/10/21 08:48:36;;;;;;;0.63;0.45;;;;;15.00;92510.00;;;;7397801;19;20501;-74
2023/10/21 08:51:21;;;;;;;1.30;0.25;;;;;14.80;92519.00;;;;7397571;19;20558;-73
2023/10/21 08:53:58;;;;;;;0.98;0.40;;;;;14.80;92524.00;;;;7395566;19;20149;-75
2023/10/21 08:56:35;;;;;;;0.30;0.30;;;;;14.90;92528.00;;;;7395613;19;20603;-75
2023/10/21 08:59:04;;;;;;;0.35;0.20;;;;;14.80;92524.00;;;;7396387;19;20172;-74
2023/10/21 09:01:35;;;;;;;1.95;0.50;;;;;14.80;92531.00;;;;7392925;19;20137;-75
2023/10/21 09:04:16;;;;;;;1.17;0.47;;;;;14.90;92536.00;;;;7394256;19;20150;-73
2023/10/21 09:06:57;;;;;;;1.60;0.30;;;;;14.80;92544.00;;;;7395359;19;20142;-76
2023/10/21 09:09:38;;;;;;;0.47;0.30;;;;;14.80;92554.00;;;;7397195;19;20745;-75
2023/10/21 09:12:14;;;;;;;1.70;0.43;;;;;14.90;92558.00;;;;7396074;19;20608;-75
2023/10/21 09:14:57;;;;;;;1.38;0.50;;;;;15.20;92556.00;;;;7393664;19;20145;-76
2023/10/21 09:17:41;;;;;;;1.45;0.40;;;;;15.30;92555.00;;;;7394455;19;20149;-74
2023/10/21 09:20:16;;;;;;;1.05;0.40;;;;;16.10;92543.00;;;;7397318;19;20199;-74
2023/10/21 09:23:11;;;;;;;1.08;0.30;;;;;15.90;92549.00;;;;7394395;19;20141;-74
2023/10/21 09:25:50;;;;;;;1.92;0.60;;;;;16.20;92553.00;;;;7393505;19;20149;-74
2023/10/21 09:28:25;;;;;;;2.38;0.57;;;;;15.80;92553.00;;;;7394406;19;20193;-76
2023/10/21 09:31:13;;;;;;;0.70;0.40;;;;;16.60;92543.00;;;;7397325;19;20133;-75
2023/10/21 09:33:57;;;;;;;2.00;0.40;;;;;16.70;92555.00;;;;7395443;19;20511;-72
2023/10/21 09:36:40;;;;;;;1.27;0.47;;;;;16.80;92564.00;;;;7393840;19;20137;-75
2023/10/21 09:39:09;;;;;;;2.45;0.60;;;;;15.70;92571.00;;;;7393758;19;20160;-74
2023/10/21 09:41:50;;;;;;;4.28;0.50;;;;;15.10;92567.00;;;;7395920;19;20158;-75
2023/10/21 09:44:19;;;;;;;0.55;0.40;;;;;15.20;92512.00;;;;7395924;19;20474;-75
2023/10/21 09:46:56;;;;;;;3.45;0.68;;;;;16.10;92562.00;;;;7392997;19;20151;-75
2023/10/21 09:49:39;;;;;;;3.22;0.50;;;;;16.00;92548.00;;;;7394596;19;20148;-75
2023/10/21 09:52:20;;;;;;;2.70;0.50;;;;;16.70;92537.00;;;;7396495;19;20161;-75
2023/10/21 09:55:03;;;;;;;3.05;0.70;;;;;16.00;92553.00;;;;7391912;19;20606;-73
2023/10/21 09:57:38;;;;;;;2.22;0.63;;;;;15.60;92538.00;;;;7393136;19;20144;-76
2023/10/21 10:00:13;;;;;;;6.05;0.80;;;;;16.00;92548.00;;;;7394143;19;21104;-76
2023/10/21 10:02:47;;;;;;;1.83;0.45;;;;;15.80;92544.00;;;;7392732;19;20141;-75
2023/10/21 10:05:23;;;;;;;0.90;0.40;;;;;15.60;92551.00;;;;7400808;19;20162;-76
2023/10/21 10:08:08;;;;;;;2.97;0.93;;;;;16.40;92546.00;;;;7399529;19;20157;-73
2023/10/21 10:10:43;;;;;;;1.05;0.43;;;;;17.00;92543.00;;;;7400213;19;20140;-77
2023/10/21 10:13:12;;;;;;;1.40;0.45;;;;;16.60;92560.00;;;;7402160;19;20476;-74
2023/10/21 10:15:47;;;;;;;1.83;0.55;;;;;16.60;92566.00;;;;7401866;19;20152;-74
2023/10/21 10:18:19;;;;;;;0.60;0.45;;;;;16.80;92572.00;;;;7400705;19;20152;-75
2023/10/21 10:21:14;;;;;;;2.25;0.63;;;;;16.70;92579.00;;;;7400288;19;20616;-77
2023/10/21 10:23:50;;;;;;;2.75;0.57;;;;;17.30;92581.00;;;;7402441;19;20178;-76
2023/10/21 10:26:33;;;;;;;2.05;0.47;;;;;17.10;92581.00;;;;7400706;19;20151;-74
2023/10/21 10:29:18;;;;;;;3.72;0.80;;;;;16.80;92587.00;;;;7396619;19;20145;-74
2023/10/21 10:32:15;;;;;;;0.52;0.45;;;;;16.40;92594.00;;;;7399763;19;20161;-72
2023/10/21 10:35:27;;;;;;;3.10;0.73;;;;;16.60;92613.00;;;;7399556;19;20137;-74
2023/10/21 10:38:17;;;;;;;2.83;0.77;;;;;16.20;92598.00;;;;7400186;19;20148;-74
2023/10/21 10:40:48;;;;;;;1.20;0.77;;;;;16.70;92589.00;;;;7398877;19;20125;-74
2023/10/21 10:43:25;;;;;;;2.17;0.80;;;;;16.60;92593.00;;;;7400899;19;20126;-75
2023/10/21 10:45:55;;;;;;;4.35;0.82;;;;;16.60;92587.00;;;;7400703;19;20233;-73
2023/10/21 10:48:32;;;;;;;1.38;0.47;;;;;15.70;92599.00;;;;7400175;19;20632;-72
2023/10/21 10:51:17;;;;;;;2.13;0.60;;;;;16.30;92579.00;;;;7398453;19;20600;-75
2023/10/21 10:54:06;;;;;;;1.13;0.65;;;;;16.90;92591.00;;;;7399562;19;20137;-76
2023/10/21 10:56:50;;;;;;;0.60;0.60;;;;;17.40;92588.00;;;;7401960;19;20154;-74
2023/10/21 10:59:28;;;;;;;3.15;0.73;;;;;18.10;92582.00;;;;7399387;19;20196;-73
2023/10/21 11:02:04;;;;;;;1.90;0.50;;;;;18.50;92583.00;;;;7396233;19;20152;-74
2023/10/21 11:04:41;;;;;;;1.75;0.80;;;;;18.60;92577.00;;;;7399106;19;21111;-73
2023/10/21 11:07:09;;;;;;;0.50;0.40;;;;;17.40;92585.00;;;;7398666;19;20608;-75
2023/10/21 11:09:51;;;;;;;1.27;0.68;;;;;16.70;92584.00;;;;7397430;19;20129;-72
2023/10/21 11:12:20;;;;;;;1.85;0.60;;;;;16.50;92593.00;;;;7397978;19;20145;-72
2023/10/21 11:14:57;;;;;;;1.23;0.60;;;;;16.10;92598.00;;;;7396030;19;20600;-74
2023/10/21 11:17:25;;;;;;;1.25;0.47;;;;;16.20;92600.00;;;;7395662;19;20141;-74
2023/10/21 11:20:00;;;;;;;2.67;0.73;;;;;16.10;92593.00;;;;7397131;19;20144;-74
2023/10/21 11:22:35;;;;;;;1.77;0.52;;;;;16.10;92593.00;;;;7395537;19;20144;-73
2023/10/21 11:25:09;;;;;;;1.55;0.70;;;;;16.30;92582.00;;;;7399335;19;20140;-75
2023/10/21 11:27:41;;;;;;;1.52;0.82;;;;;16.20;92593.00;;;;7395372;19;20138;-74
2023/10/21 11:30:15;;;;;;;0.77;0.60;;;;;16.50;92597.00;;;;7395115;19;20181;-73
2023/10/21 11:32:44;;;;;;;1.35;0.57;;;;;16.40;92595.00;;;;7399408;19;20241;-75
2023/10/21 11:35:18;;;;;;;1.58;0.63;;;;;16.50;92599.00;;;;7398444;19;20134;-76
2023/10/21 11:37:56;;;;;;;1.55;0.65;;;;;17.30;92605.00;;;;7396192;19;20160;-75
2023/10/21 11:40:24;;;;;;;1.92;0.70;;;;;17.40;92616.00;;;;7397244;19;20184;-75
2023/10/21 11:43:05;;;;;;;1.48;0.75;;;;;16.70;92609.00;;;;7398218;19;20121;-76
2023/10/21 11:45:34;;;;;;;0.82;0.50;;;;;17.00;92611.00;;;;7397078;19;20165;-74
2023/10/21 11:48:10;;;;;;;0.80;0.50;;;;;17.20;92599.00;;;;7393762;19;20535;-75
2023/10/21 11:50:46;;;;;;;0.95;0.50;;;;;17.60;92620.00;;;;7399072;19;20124;-73
2023/10/21 11:53:20;;;;;;;1.38;0.50;;;;;16.70;92609.00;;;;7394377;19;20136;-74
2023/10/21 12:13:37;;;;;;;1.55;0.50;;;;;17.50;92633.00;;;;7395329;19;20224;-78
2023/10/21 12:21:21;;;;;;;5.32;0.60;;;;;17.60;92643.00;;;;7396083;19;20137;-77
2023/10/21 12:35:37;;;;;;;0.70;0.50;;;;;19.40;92615.00;;;;7396686;19;20145;-75
2023/10/21 12:38:23;;;;;;;1.88;0.85;;;;;18.40;92611.00;;;;7396520;19;20144;-76
2023/10/21 12:41:20;;;;;;;0.65;0.43;;;;;19.20;92622.00;;;;7395936;19;20177;-76
2023/10/21 12:44:11;;;;;;;2.55;0.55;;;;;18.90;92618.00;;;;7396660;19;20151;-75
2023/10/21 12:46:55;;;;;;;2.05;0.80;;;;;18.50;92611.00;;;;7395467;19;20496;-75
2023/10/21 12:49:28;;;;;;;1.08;0.60;;;;;18.60;92621.00;;;;7396028;19;20152;-77
2023/10/21 12:52:10;;;;;;;0.40;0.40;;;;;18.70;92620.00;;;;7399008;19;20129;-76
2023/10/21 12:54:45;;;;;;;1.23;0.50;;;;;18.90;92624.00;;;;7397379;19;20251;-75
2023/10/21 12:57:21;;;;;;;0.95;0.50;;;;;19.80;92623.00;;;;7395307;19;20143;-78
2023/10/21 12:59:50;;;;;;;2.42;0.75;;;;;18.40;92642.00;;;;7394785;19;20121;-77
2023/10/21 13:02:26;;;;;;;0.57;0.50;;;;;18.30;92630.00;;;;7392549;19;20172;-77
2023/10/21 13:04:55;;;;;;;2.45;0.70;;;;;17.80;92657.00;;;;7393565;19;20152;-80
2023/10/21 13:07:33;;;;;;;3.63;0.80;;;;;16.90;92665.00;;;;7391417;19;20146;-77
2023/10/21 13:10:15;;;;;;;0.82;0.50;;;;;16.10;92665.00;;;;7396372;19;20129;-77
2023/10/21 13:12:49;;;;;;;2.30;0.93;;;;;16.00;92665.00;;;;7394914;19;20192;-79
2023/10/21 13:15:24;;;;;;;1.98;0.70;;;;;17.40;92640.00;;;;7394220;19;20476;-76
2023/10/21 13:18:03;;;;;;;1.00;0.47;;;;;18.70;92658.00;;;;7392421;19;20124;-76
2023/10/21 13:20:39;;;;;;;1.38;1.17;;;;;17.60;92678.00;;;;7395052;19;20148;-74
2023/10/21 13:23:13;;;;;;;3.08;0.60;;;;;17.60;92651.00;;;;7394274;19;20160;-74
2023/10/21 13:25:48;;;;;;;1.95;0.90;;;;;17.60;92679.00;;;;7394813;19;20137;-75
2023/10/21 13:28:17;;;;;;;1.80;0.60;;;;;17.00;92682.00;;;;7391871;19;20148;-72
2023/10/21 13:30:52;;;;;;;1.10;0.70;;;;;16.80;92676.00;;;;7394899;19;20129;-75
2023/10/21 13:33:32;;;;;;;1.20;0.65;;;;;17.50;92669.00;;;;7395301;19;20580;-74